Sea Cloud II — 9HUE6 — position and weather

sailwx.info

Track history (hours):
 
Tides and Currents Weather Stations Pressure Air Temp Water Temp Dewpoint Dewpoint Depression Visibility Wind Speed Wind Dir Waves Ship Positions

Sea Cloud II

Ship's website: http://www.seacloud.com/en/the-ships/sea-cloud-ii.html

Last reported at 2014-Sep-15 20:21 UTC. Time now 2014-Sep-16 00:52 UTC.
Position N 42°52' E 004°13'.

Length 117 m; draft 5.8 m.

Type: Passenger vessel. MMSI: 248953000.

Date/timePositionNaut miles runAvg speedWind from/ knotsBaromVisibWave heightAir tempDewpointWater temp
2014-Sep-15 20:21N 42°52' E 004°13'8 9.1
2014-Sep-15 19:27N 42°49' E 004°02'2611.9
2014-Sep-15 17:14N 42°39' E 003°29'16 1.4
2014-Sep-15 05:23N 42°32' E 003°08'9 3.8
2014-Sep-15 03:05N 42°27' E 003°18'18 3.6
2014-Sep-14 22:09N 42°10' E 003°24'7 3.7
2014-Sep-14 20:17N 42°04' E 003°24'810.9
2014-Sep-14 19:33N 41°55' E 003°23'1111.2
2014-Sep-14 18:33N 41°48' E 003°11'1311.8
2014-Sep-14 17:25N 41°41' E 002°56'1111.5
2014-Sep-14 16:27N 41°35' E 002°44'1 1.4
2014-Sep-14 15:27N 41°36' E 002°44'5 4.6
2014-Sep-14 14:21N 41°40' E 002°50'5 3.8
2014-Sep-14 13:07N 41°41' E 002°55'8 4.2
2014-Sep-14 11:17N 41°42' E 003°06'8 4.3
2014-Sep-14 09:32N 41°45' E 003°15'5 4.4
2014-Sep-14 08:29N 41°43' E 003°20'4 3.7
2014-Sep-14 07:19N 41°42' E 003°26'22 3.8
2014-Sep-14 01:26N 41°33' E 002°59'18 4.6
2014-Sep-13 21:34N 41°26' E 002°37'5 4.6
2014-Sep-13 20:32N 41°25' E 002°31'4 4.3
2014-Sep-13 19:31N 41°23' E 002°26'5 4.4
2014-Sep-13 18:23N 41°21' E 002°19'5 4.2
2014-Sep-13 17:05N 41°20' E 002°12'  
2014-Sep-11 05:17N 41°22' E 002°11'19 6.7
2014-Sep-11 02:27N 41°05' E 002°01'1110.5
2014-Sep-11 01:27N 40°57' E 001°52'1111.6
2014-Sep-11 00:31N 40°49' E 001°42'1512.3
2014-Sep-10 23:17N 40°37' E 001°30'912.2
2014-Sep-10 22:33N 40°31' E 001°21'1212.2
2014-Sep-10 21:33N 40°23' E 001°09'2612.8
2014-Sep-10 19:33N 40°06' E 000°44'5012.6
2014-Sep-10 15:33N 39°33' W 000°06'1211.6
2014-Sep-10 14:33N 39°26' W 000°18'2 2.0
2014-Sep-10 13:33N 39°27' W 000°20'0 0.0
2014-Sep-10 12:33N 39°27' W 000°20'0 0.0
2014-Sep-10 11:33N 39°27' W 000°20'0 0.0
2014-Sep-10 10:30N 39°27' W 000°20'0 0.0
2014-Sep-10 09:24N 39°27' W 000°20'0 0.0
2014-Sep-10 08:30N 39°27' W 000°20'0 0.0
2014-Sep-10 07:30N 39°27' W 000°20'0 0.0
2014-Sep-10 06:30N 39°27' W 000°20'0 0.0
2014-Sep-10 05:33N 39°27' W 000°20'0 0.0
2014-Sep-10 04:33N 39°27' W 000°20'0 0.0
2014-Sep-10 03:33N 39°27' W 000°20'0 0.0
2014-Sep-10 02:30N 39°27' W 000°20'0 0.0
2014-Sep-10 01:33N 39°27' W 000°20'0 0.0
2014-Sep-10 00:33N 39°27' W 000°20'0 0.0
2014-Sep-09 23:27N 39°27' W 000°20'0 0.0
2014-Sep-09 22:33N 39°27' W 000°20'0 0.0
2014-Sep-09 20:33N 39°27' W 000°20'0 0.0
2014-Sep-09 19:33N 39°27' W 000°20'0 0.0
2014-Sep-09 18:33N 39°27' W 000°20'0 0.0
2014-Sep-09 17:33N 39°27' W 000°20'0 0.0
2014-Sep-09 16:33N 39°27' W 000°20'0 0.0
2014-Sep-09 15:33N 39°27' W 000°20'0 0.0
2014-Sep-09 14:33N 39°27' W 000°20'0 0.0
2014-Sep-09 13:33N 39°27' W 000°20'0 0.0
2014-Sep-09 12:33N 39°27' W 000°20'0 0.0
2014-Sep-09 11:33N 39°27' W 000°20'0 0.1
2014-Sep-09 10:33N 39°27' W 000°19'6 6.1
2014-Sep-09 09:33N 39°23' W 000°14'100 8.4
2014-Sep-08 21:32N 37°43' W 000°22'1111.6
2014-Sep-08 20:33N 37°34' W 000°31'1211.9
2014-Sep-08 19:33N 37°26' W 000°41'1212.0
2014-Sep-08 18:33N 37°18' W 000°53'1212.3
2014-Sep-08 17:33N 37°10' W 001°05'1212.3
2014-Sep-08 16:32N 37°02' W 001°17'1212.3
2014-Sep-08 15:33N 36°55' W 001°29'1412.9
2014-Sep-08 14:29N 36°48' W 001°44'187 5.4
2014-Sep-07 03:33N 35°58' W 005°28'  
Track history (hours):
 
Tides and Currents Weather Stations Pressure Air Temp Water Temp Dewpoint Dewpoint Depression Visibility Wind Speed Wind Dir Waves Ship Positions

Sea Cloud II

Ship's website: http://www.seacloud.com/en/the-ships/sea-cloud-ii.html

Last reported at 2014-Sep-15 20:21 UTC. Time now 2014-Sep-16 00:52 UTC.
Position N 42°52' E 004°13'.

Length 117 m; draft 5.8 m.

Type: Passenger vessel. MMSI: 248953000.

Date/timePositionNaut miles runAvg speedWind from/ knotsBaromVisibWave heightAir tempDewpointWater temp
2014-Sep-15 20:21N 42°52' E 004°13'8 9.1
2014-Sep-15 19:27N 42°49' E 004°02'2611.9
2014-Sep-15 17:14N 42°39' E 003°29'16 1.4
2014-Sep-15 05:23N 42°32' E 003°08'9 3.8
2014-Sep-15 03:05N 42°27' E 003°18'18 3.6
2014-Sep-14 22:09N 42°10' E 003°24'7 3.7
2014-Sep-14 20:17N 42°04' E 003°24'810.9
2014-Sep-14 19:33N 41°55' E 003°23'1111.2
2014-Sep-14 18:33N 41°48' E 003°11'1311.8
2014-Sep-14 17:25N 41°41' E 002°56'1111.5
2014-Sep-14 16:27N 41°35' E 002°44'1 1.4
2014-Sep-14 15:27N 41°36' E 002°44'5 4.6
2014-Sep-14 14:21N 41°40' E 002°50'5 3.8
2014-Sep-14 13:07N 41°41' E 002°55'8 4.2
2014-Sep-14 11:17N 41°42' E 003°06'8 4.3
2014-Sep-14 09:32N 41°45' E 003°15'5 4.4
2014-Sep-14 08:29N 41°43' E 003°20'4 3.7
2014-Sep-14 07:19N 41°42' E 003°26'22 3.8
2014-Sep-14 01:26N 41°33' E 002°59'18 4.6
2014-Sep-13 21:34N 41°26' E 002°37'5 4.6
2014-Sep-13 20:32N 41°25' E 002°31'4 4.3
2014-Sep-13 19:31N 41°23' E 002°26'5 4.4
2014-Sep-13 18:23N 41°21' E 002°19'5 4.2
2014-Sep-13 17:05N 41°20' E 002°12'  
2014-Sep-11 05:17N 41°22' E 002°11'19 6.7
2014-Sep-11 02:27N 41°05' E 002°01'1110.5
2014-Sep-11 01:27N 40°57' E 001°52'1111.6
2014-Sep-11 00:31N 40°49' E 001°42'1512.3
2014-Sep-10 23:17N 40°37' E 001°30'912.2
2014-Sep-10 22:33N 40°31' E 001°21'1212.2
2014-Sep-10 21:33N 40°23' E 001°09'2612.8
2014-Sep-10 19:33N 40°06' E 000°44'5012.6
2014-Sep-10 15:33N 39°33' W 000°06'1211.6
2014-Sep-10 14:33N 39°26' W 000°18'2 2.0
2014-Sep-10 13:33N 39°27' W 000°20'0 0.0
2014-Sep-10 12:33N 39°27' W 000°20'0 0.0
2014-Sep-10 11:33N 39°27' W 000°20'0 0.0
2014-Sep-10 10:30N 39°27' W 000°20'0 0.0
2014-Sep-10 09:24N 39°27' W 000°20'0 0.0
2014-Sep-10 08:30N 39°27' W 000°20'0 0.0
2014-Sep-10 07:30N 39°27' W 000°20'0 0.0
2014-Sep-10 06:30N 39°27' W 000°20'0 0.0
2014-Sep-10 05:33N 39°27' W 000°20'0 0.0
2014-Sep-10 04:33N 39°27' W 000°20'0 0.0
2014-Sep-10 03:33N 39°27' W 000°20'0 0.0
2014-Sep-10 02:30N 39°27' W 000°20'0 0.0
2014-Sep-10 01:33N 39°27' W 000°20'0 0.0
2014-Sep-10 00:33N 39°27' W 000°20'0 0.0
2014-Sep-09 23:27N 39°27' W 000°20'0 0.0
2014-Sep-09 22:33N 39°27' W 000°20'0 0.0
2014-Sep-09 20:33N 39°27' W 000°20'0 0.0
2014-Sep-09 19:33N 39°27' W 000°20'0 0.0
2014-Sep-09 18:33N 39°27' W 000°20'0 0.0
2014-Sep-09 17:33N 39°27' W 000°20'0 0.0
2014-Sep-09 16:33N 39°27' W 000°20'0 0.0
2014-Sep-09 15:33N 39°27' W 000°20'0 0.0
2014-Sep-09 14:33N 39°27' W 000°20'0 0.0
2014-Sep-09 13:33N 39°27' W 000°20'0 0.0
2014-Sep-09 12:33N 39°27' W 000°20'0 0.0
2014-Sep-09 11:33N 39°27' W 000°20'0 0.1
2014-Sep-09 10:33N 39°27' W 000°19'6 6.1
2014-Sep-09 09:33N 39°23' W 000°14'100 8.4
2014-Sep-08 21:32N 37°43' W 000°22'1111.6
2014-Sep-08 20:33N 37°34' W 000°31'1211.9
2014-Sep-08 19:33N 37°26' W 000°41'1212.0
2014-Sep-08 18:33N 37°18' W 000°53'1212.3
2014-Sep-08 17:33N 37°10' W 001°05'1212.3
2014-Sep-08 16:32N 37°02' W 001°17'1212.3
2014-Sep-08 15:33N 36°55' W 001°29'1412.9
2014-Sep-08 14:29N 36°48' W 001°44'187 5.4
2014-Sep-07 03:33N 35°58' W 005°28'  

Dump ship's entire track history